Auriesville, NY

6:47 PM EDT on April 26, 2015 (GMT -0400)
Old Trail Road | | Change Station
CLOSE
Current Station
Personal Weather Station
Location: Fonda, NY
Elevation: 620 ft
Nearby Weather Stations

Elev 620 ft 42.97 °N, 74.37 °W | Updated 30 seconds ago

Overcast
Overcast
49.5 °F
Feels Like 46 °F
N
9.0
Wind Variable Wind from WNW
Gusts 17.0 mph

Today
High -- | Low -- °F
--% Chance of Precip.
Yesterday
High -- | Low -- °F
Precip. -- in
5:58 AM 7:52 PM
First Quarter, 59% visible
Pressure 29.68 in
Visibility 10.0 miles
Clouds Mostly Cloudy 6500 ft
Windchill 46 °F
Dew Point 35 °F
Humidity 58%
Rainfall 0.00 in
Snow Depth Not available.
UV 1 out of 12
Pollen 10.10 out of 12
Air Quality Not available.
Flu Activity Widespread
METAR KSCH 262157Z 31008G20KT 10SM BKN065 12/M02 A2968

More Conditions Fewer Conditions

Pressure 29.68 in
Visibility 10.0 miles
Clouds Mostly Cloudy 6500 ft
Windchill 46 °F
Dew Point 35 °F
Humidity 58%
Rainfall 0.00 in
Snow Depth Not available.
UV 1 out of 12
Pollen 10.10 out of 12
Air Quality Not available.
Flu Activity Widespread
METAR KSCH 262157Z 31008G20KT 10SM BKN065 12/M02 A2968

More Conditions Fewer Conditions

The full scope of the disaster following a powerful 7.8-magnitude earthquake in Nepal may not come into view for days, but global charities are already sending emergency aid. Click to see how you can help.

10-Day Weather Forecast

Almanac

Astronomy

Apr. 26, 2015 Rise Set
Actual Time
Civil Twilight
Nautical Twilight
Astronomical Twilight
Moon
Length of Visible Light
Length of Day
Tomorrow will be .
, % of the Moon is Illuminated

Today's Extremes

State Highs State Lows

Community

WunderPhotos

Upload Photos

1,817,149 photos uploaded!

WunderBlogs® & News

Nearby

Air Quality

  Air Quality AQ Index Pollutant
Not available.

Snow Depth

Station Depth Elevation

Earthquake Activity

City Distance Mag. Time & Date
Minimum magnitude displayed is 2.5.

Coastal Water Temperatures

Place Temperature

Stations

Nearby Weather Stations

Station Location Temp. Windchill Dew Point Humidity Wind Precip. Elev Updated Type